• Join FlightAware (Why Join?)
  • Login
  • US Flag 
04:58AM EST


 

Airport Tracker/Info


-or-


 

Live Flight TrackerFlight Track Log ✈ FIN666 ✈ 13-Jan-2014 ✈ EKCH / CPH - EFHK / HEL

Flight Track Log - Related Links

Times and Time Zones

All times are in EST time to prevent confusion due to time zone crossing. See the FIN666 flight status page for this flight to view local times or setup timezone preferences in your user account.

Time Position Orientation Groundspeed Altitude Reporting Facility
EST Latitude Longitude Course Direction KTS MPH feet Rate Location/Type
07:22AM 55.8592 13.1550 49° Northeast  Level Estimated
07:23AM 55.9392 13.3227 50° Northeast  Level Estimated
07:24AM 56.0189 13.4911 50° Northeast  Level Estimated
07:25AM 56.0985 13.6603 50° Northeast  Level Estimated
07:26AM 56.1777 13.8301 50° Northeast  Level Estimated
07:27AM 56.2593 14.0060 50° Northeast  Level Estimated
07:28AM 56.3406 14.1827 50° Northeast  Level Estimated
07:29AM 56.4217 14.3601 50° Northeast  Level Estimated
07:30AM 56.5025 14.5383 51° Northeast  Level Estimated
07:31AM 56.5830 14.7173 51° Northeast  Level Estimated
07:32AM 56.6633 14.8970 51° Northeast  Level Estimated
07:33AM 56.7434 15.0775 51° Northeast  Level Estimated
07:34AM 56.8231 15.2588 51° Northeast  Level Estimated
07:35AM 56.9039 15.4437 51° Northeast  Level Estimated
07:36AM 56.9844 15.6295 51° Northeast  Level Estimated
07:37AM 57.0646 15.8161 52° Northeast  Level Estimated
07:38AM 57.1446 16.0035 52° Northeast  Level Estimated
07:39AM 57.2243 16.1917 52° Northeast  Level Estimated
07:40AM 57.3036 16.3807 52° Northeast  Level Estimated
07:41AM 57.3828 16.5705 52° Northeast  Level Estimated
07:42AM 57.4616 16.7611 52° Northeast  Level Estimated
07:43AM 57.5401 16.9526 53° Northeast  Level Estimated
07:44AM 57.6184 17.1449 53° Northeast  Level Estimated
07:45AM 57.6963 17.3380 53° Northeast  Level Estimated
07:46AM 57.7739 17.5319 53° Northeast  Level Estimated
07:47AM 57.8513 17.7267 53° Northeast  Level Estimated
07:48AM 57.9283 17.9223 53° Northeast  Level Estimated
07:49AM 58.0051 18.1188 54° Northeast  Level Estimated
07:50AM 58.0816 18.3161 54° Northeast  Level Estimated
07:51AM 58.1577 18.5143 54° Northeast  Level Estimated
07:52AM 58.2335 18.7132 54° Northeast  Level Estimated
07:53AM 58.3090 18.9131 54° Northeast  Level Estimated
07:54AM 58.3843 19.1138 54° Northeast  Level Estimated
07:55AM 58.4591 19.3153 55° Northeast  Level Estimated
07:56AM 58.5337 19.5178 55° Northeast  Level Estimated
07:57AM 58.6080 19.7210 55° Northeast  Level Estimated
07:58AM 58.6819 19.9252 55° Northeast  Level Estimated
07:59AM 58.7555 20.1302 55° Northeast  Level Estimated
08:00AM 58.8288 20.3360 55° Northeast  Level Estimated
08:01AM 58.9018 20.5428 56° Northeast  Level Estimated
08:02AM 58.9744 20.7504 56° Northeast  Level Estimated
08:03AM 59.0467 20.9589 56° Northeast  Level Estimated
08:04AM 59.1186 21.1683 56° Northeast  Level Estimated
08:05AM 59.1903 21.3785 56° Northeast  Level Estimated
08:06AM 59.2615 21.5896 56° Northeast  Level Estimated
08:07AM 59.3325 21.8016 57° Northeast  Level Estimated
08:08AM 59.4031 22.0145 57° Northeast  Level Estimated
08:09AM 59.4733 22.2283 57° Northeast  Level Estimated
08:10AM 59.5432 22.4430 57° Northeast  Level Estimated
08:11AM 59.6127 22.6586 57° Northeast  Level Estimated
08:12AM 59.6819 22.8750 58° Northeast  Level Estimated
08:13AM 59.7507 23.0924 58° Northeast  Level Estimated
08:14AM 59.8192 23.3106 58° Northeast  Level Estimated
08:15AM 59.8873 23.5297 58° Northeast  Level Estimated
08:16AM 59.9550 23.7498 58° Northeast  Level Estimated
08:17AM 60.0224 23.9707 59° Northeast  Level Estimated
08:18AM 60.0894 24.1925 59° Northeast  Level Estimated
08:19AM 60.1560 24.4153 59° Northeast  Level Estimated
08:20AM 60.2223 24.6389 59° Northeast  Level Estimated
08:21AM 60.2881 24.8634 59° Northeast  Level Estimated
08:22AM 60.3172 24.9633 60° Northeast  Level Estimated
08:23AM 60.3172 24.9633 37° Northeast  Level Estimated
08:24AM 60.3172 24.9633 37° Northeast  Level Estimated
08:25AM 60.3172 24.9633 37° Northeast  Level Estimated
08:26AM 60.3172 24.9633 37° Northeast  Level Estimated
08:27AM 60.3172 24.9633 37° Northeast  Level Estimated
08:28AM 60.3172 24.9633 37° Northeast  Level Estimated
08:29AM 60.3172 24.9633 37° Northeast  Level Estimated
08:30AM 60.3172 24.9633 37° Northeast  Level Estimated
08:31AM 60.3172 24.9633 37° Northeast  Level Estimated
08:32AM 60.3172 24.9633 37° Northeast  Level Estimated
08:33AM 60.3172 24.9633 37° Northeast  Level Estimated
08:34AM 60.3172 24.9633 37° Northeast  Level Estimated
08:35AM 60.3172 24.9633 37° Northeast  Level Estimated
08:36AM 60.3172 24.9633 37° Northeast  Level Estimated
08:37AM 60.3172 24.9633 37° Northeast  Level Estimated
08:38AM 60.3172 24.9633 37° Northeast  Level Estimated